Aviation Digital Data Service (ADDS)

Output produced by METARs form (1754 UTC 01 March 2017)
found at http://aviationweather.gov/adds/metars/
 
KBUF 011741Z 0118/0218 23018G25KT P6SM BKN050 
     FM012000 24020G32KT P6SM VCTS OVC035CB 
     FM020000 24027G54KT P6SM SCT035 
     FM020400 25023G38KT P6SM BKN035 
     FM020800 27021G36KT P6SM OVC035 
     FM021200 28018G28KT P6SM OVC035